createdAt,value
2023-02-22T00:01:47.213Z,7.63
2023-02-22T00:04:14.094Z,7.62
2023-02-22T00:06:40.610Z,7.63
2023-02-22T00:09:09.266Z,7.60
2023-02-22T00:11:39.779Z,7.60
2023-02-22T00:14:06.340Z,7.59
2023-02-22T00:16:32.900Z,7.57
2023-02-22T00:18:59.617Z,7.55
2023-02-22T00:21:26.123Z,7.54
2023-02-22T00:23:54.567Z,7.53
2023-02-22T00:26:23.245Z,7.53
2023-02-22T00:28:52.616Z,7.51
2023-02-22T00:31:20.536Z,7.50
2023-02-22T00:33:49.498Z,7.50
2023-02-22T00:36:17.176Z,7.49
2023-02-22T00:39:09.566Z,7.46
2023-02-22T00:41:36.131Z,7.46
2023-02-22T00:44:28.542Z,7.45
2023-02-22T00:46:55.121Z,7.44
2023-02-22T00:49:21.910Z,7.43
2023-02-22T00:51:50.764Z,7.40
2023-02-22T00:54:19.922Z,7.36
2023-02-22T00:56:46.884Z,7.30
2023-02-22T00:59:13.529Z,7.27
2023-02-22T01:01:40.185Z,7.24
2023-02-22T01:04:10.637Z,7.22
2023-02-22T01:06:38.549Z,7.20
2023-02-22T01:09:07.620Z,7.16
2023-02-22T01:11:34.395Z,7.12
2023-02-22T01:14:01.330Z,7.10
2023-02-22T01:16:28.918Z,7.11
2023-02-22T01:18:55.494Z,7.10
2023-02-22T01:21:22.085Z,7.09
2023-02-22T01:23:49.808Z,7.03
2023-02-22T01:26:16.336Z,6.99
2023-02-22T01:28:42.933Z,6.97
2023-02-22T01:31:10.360Z,6.96
2023-02-22T01:33:37.111Z,6.96
2023-02-22T01:36:11.201Z,6.95
2023-02-22T01:38:38.970Z,6.91
2023-02-22T01:41:05.973Z,6.90
2023-02-22T01:43:33.481Z,6.88
2023-02-22T01:46:06.230Z,6.85
2023-02-22T01:48:36.282Z,6.85
2023-02-22T01:51:20.389Z,6.85
2023-02-22T01:53:56.993Z,6.85
2023-02-22T01:56:26.776Z,6.83
2023-02-22T01:58:59.571Z,6.78
2023-02-22T02:01:26.903Z,6.75
2023-02-22T02:03:58.256Z,6.76
2023-02-22T02:06:26.938Z,6.74
2023-02-22T02:09:14.739Z,6.74
2023-02-22T02:11:42.028Z,6.76
2023-02-22T02:14:10.200Z,6.70
2023-02-22T02:16:51.207Z,6.70
2023-02-22T02:19:39.571Z,6.68
2023-02-22T02:22:20.861Z,6.66
2023-02-22T02:25:27.841Z,6.64
2023-02-22T02:28:13.320Z,6.63
2023-02-22T02:31:10.973Z,6.65
2023-02-22T02:33:47.820Z,6.60
2023-02-22T02:36:44.368Z,6.60
2023-02-22T02:39:39.812Z,6.58
2023-02-22T02:42:10.126Z,6.57
2023-02-22T02:44:55.543Z,6.56
2023-02-22T02:47:28.837Z,6.53
2023-02-22T02:50:02.556Z,6.52
2023-02-22T02:52:34.668Z,6.48
2023-02-22T02:55:09.070Z,6.46
2023-02-22T02:57:35.592Z,6.47
2023-02-22T03:00:02.138Z,6.46
2023-02-22T03:02:45.928Z,6.46
2023-02-22T03:05:43.727Z,6.44
2023-02-22T03:08:19.446Z,6.42
2023-02-22T03:11:16.891Z,6.39
2023-02-22T03:13:56.338Z,6.36
2023-02-22T03:16:38.117Z,6.33
2023-02-22T03:19:21.785Z,6.31
2023-02-22T03:22:10.299Z,6.29
2023-02-22T03:24:58.923Z,6.28
2023-02-22T03:27:37.083Z,6.24
2023-02-22T03:30:12.271Z,6.21
2023-02-22T03:32:42.677Z,6.17
2023-02-22T03:35:18.042Z,6.11
2023-02-22T03:37:48.229Z,6.06
2023-02-22T03:40:28.054Z,6.02
2023-02-22T03:43:04.679Z,5.98
2023-02-22T03:45:34.718Z,5.96
2023-02-22T03:48:31.460Z,5.89
2023-02-22T03:51:04.294Z,5.84
2023-02-22T03:53:34.506Z,5.82
2023-02-22T03:56:05.434Z,5.80
2023-02-22T03:58:36.580Z,5.75
2023-02-22T04:01:03.857Z,5.72
2023-02-22T04:03:31.035Z,5.66
2023-02-22T04:05:58.112Z,5.56
2023-02-22T04:08:24.709Z,5.52
2023-02-22T04:10:52.404Z,5.45
2023-02-22T04:13:22.108Z,5.43
2023-02-22T04:15:50.490Z,5.39
2023-02-22T04:18:17.440Z,5.33
2023-02-22T04:20:46.321Z,5.31
2023-02-22T04:23:21.233Z,5.27
2023-02-22T04:25:48.630Z,5.24
2023-02-22T04:28:17.011Z,5.23
2023-02-22T04:30:52.339Z,5.18
2023-02-22T04:33:19.737Z,5.19
2023-02-22T04:35:46.765Z,5.12
2023-02-22T04:38:14.250Z,5.08
2023-02-22T04:40:41.228Z,5.03
2023-02-22T04:43:09.033Z,5.00
2023-02-22T04:45:35.974Z,4.98
2023-02-22T04:48:04.235Z,4.95
2023-02-22T04:50:30.830Z,4.96
2023-02-22T04:52:57.452Z,4.94
2023-02-22T04:55:25.149Z,4.91
2023-02-22T04:57:51.693Z,4.88
2023-02-22T05:00:21.456Z,4.86
2023-02-22T05:02:49.734Z,4.82
2023-02-22T05:05:24.246Z,4.81
2023-02-22T05:08:42.621Z,4.79
2023-02-22T05:11:09.664Z,4.78
2023-02-22T05:13:36.279Z,4.75
2023-02-22T05:16:04.226Z,4.74
2023-02-22T05:18:30.863Z,4.74
2023-02-22T05:20:57.360Z,4.71
2023-02-22T05:23:25.559Z,4.69
2023-02-22T05:25:52.065Z,4.67
2023-02-22T05:28:19.742Z,4.67
2023-02-22T05:30:46.424Z,4.66
2023-02-22T05:33:13.184Z,4.63
2023-02-22T05:35:40.080Z,4.60
2023-02-22T05:38:07.442Z,4.58
2023-02-22T05:40:34.068Z,4.57
2023-02-22T05:43:02.609Z,4.56
2023-02-22T05:45:29.789Z,4.57
2023-02-22T05:47:57.188Z,4.55
2023-02-22T05:50:24.990Z,4.51
2023-02-22T05:52:56.361Z,4.50
2023-02-22T05:55:24.835Z,4.49
2023-02-22T05:57:52.299Z,4.53
2023-02-22T06:00:27.560Z,4.54
2023-02-22T06:02:59.813Z,4.58
2023-02-22T06:05:27.126Z,4.62
2023-02-22T06:07:54.827Z,4.65
2023-02-22T06:10:22.169Z,4.63
2023-02-22T06:12:50.734Z,4.63
2023-02-22T06:15:19.268Z,4.63
2023-02-22T06:17:46.008Z,4.90
2023-02-22T06:20:15.768Z,4.79
2023-02-22T06:22:44.640Z,4.76
2023-02-22T06:25:14.741Z,4.72
2023-02-22T06:27:44.512Z,4.67
2023-02-22T06:30:13.470Z,4.64
2023-02-22T06:32:40.507Z,4.61
2023-02-22T06:35:07.758Z,4.58
2023-02-22T06:37:34.449Z,4.56
2023-02-22T06:40:05.567Z,4.67
2023-02-22T06:42:32.909Z,4.64
2023-02-22T06:45:00.835Z,4.62
2023-02-22T06:47:27.444Z,4.62
2023-02-22T06:49:55.243Z,4.64
2023-02-22T06:52:22.704Z,4.66
2023-02-22T06:54:50.635Z,4.66
2023-02-22T06:57:18.041Z,4.75
2023-02-22T06:59:44.867Z,4.78
2023-02-22T07:02:12.338Z,4.76
2023-02-22T07:04:39.220Z,4.76
2023-02-22T07:07:06.761Z,4.73
2023-02-22T07:09:33.335Z,4.75
2023-02-22T07:11:59.932Z,4.77
2023-02-22T07:14:26.442Z,4.80
2023-02-22T07:16:52.978Z,4.81
2023-02-22T07:19:19.547Z,4.85
2023-02-22T07:21:47.840Z,4.89
2023-02-22T07:24:14.570Z,4.94
2023-02-22T07:26:42.456Z,4.99
2023-02-22T07:29:11.138Z,5.00
2023-02-22T07:31:38.724Z,5.03
2023-02-22T07:34:05.627Z,5.06
2023-02-22T07:36:32.225Z,5.09
2023-02-22T07:38:58.759Z,5.12
2023-02-22T07:41:26.075Z,5.16
2023-02-22T07:43:52.598Z,5.20
2023-02-22T07:46:19.212Z,5.28
2023-02-22T07:48:45.979Z,5.33
2023-02-22T07:51:15.916Z,5.40
2023-02-22T07:53:42.573Z,5.52
2023-02-22T07:56:09.151Z,5.60
2023-02-22T07:58:35.769Z,5.67
2023-02-22T08:01:02.483Z,5.74
2023-02-22T08:03:36.226Z,5.80
2023-02-22T08:06:03.603Z,5.89
2023-02-22T08:08:30.203Z,6.05
2023-02-22T08:10:57.114Z,6.12
2023-02-22T08:13:24.171Z,6.27
2023-02-22T08:15:53.661Z,6.30
2023-02-22T08:18:21.250Z,6.41
2023-02-22T08:20:51.806Z,6.52
2023-02-22T08:23:20.043Z,6.58
2023-02-22T08:25:46.590Z,6.70
2023-02-22T08:28:16.468Z,6.81
2023-02-22T08:30:43.688Z,6.95
2023-02-22T08:33:14.366Z,7.08
2023-02-22T08:35:42.047Z,7.16
2023-02-22T08:38:16.629Z,7.22
2023-02-22T08:40:43.211Z,7.31
2023-02-22T08:43:09.802Z,7.36
2023-02-22T08:45:36.407Z,7.45
2023-02-22T08:48:03.846Z,7.58
2023-02-22T08:50:35.604Z,7.68
2023-02-22T08:53:04.694Z,7.76
2023-02-22T08:55:34.438Z,7.85
2023-02-22T08:58:02.960Z,7.99
2023-02-22T09:00:32.920Z,8.05
2023-02-22T09:03:01.394Z,8.10
2023-02-22T09:05:31.140Z,8.19
2023-02-22T09:07:58.874Z,8.23
2023-02-22T09:10:28.543Z,8.30
2023-02-22T09:12:55.681Z,8.38
2023-02-22T09:15:24.002Z,8.46
2023-02-22T09:17:51.348Z,8.53
2023-02-22T09:20:20.097Z,8.62
2023-02-22T09:22:48.335Z,8.78
2023-02-22T09:25:17.226Z,8.82
2023-02-22T09:27:47.771Z,8.87
2023-02-22T09:30:24.821Z,8.94
2023-02-22T09:32:55.754Z,8.99
2023-02-22T09:35:27.629Z,9.08
2023-02-22T09:37:58.469Z,9.10
2023-02-22T09:40:29.843Z,9.14
2023-02-22T09:43:18.718Z,9.19
2023-02-22T09:46:21.392Z,9.26
2023-02-22T09:49:13.865Z,9.35
2023-02-22T09:51:45.507Z,9.41
2023-02-22T09:54:24.963Z,9.51
2023-02-22T09:56:55.934Z,9.56
2023-02-22T09:59:28.554Z,9.57
2023-02-22T10:02:22.112Z,9.52
2023-02-22T10:05:08.252Z,9.52
2023-02-22T10:07:44.351Z,9.61
2023-02-22T10:10:18.118Z,9.57
2023-02-22T10:13:15.346Z,9.63
2023-02-22T10:15:48.247Z,9.69
2023-02-22T10:18:40.069Z,9.75
2023-02-22T10:21:25.440Z,9.87
2023-02-22T10:24:10.506Z,9.89
2023-02-22T10:26:42.318Z,9.98
2023-02-22T10:29:29.030Z,10.07
2023-02-22T10:32:02.951Z,10.19
2023-02-22T10:34:37.811Z,10.38
2023-02-22T10:37:27.779Z,10.50
2023-02-22T10:40:11.443Z,10.75
2023-02-22T10:42:38.184Z,10.81
2023-02-22T10:45:06.624Z,11.00
2023-02-22T10:47:34.070Z,11.19
2023-02-22T10:50:01.466Z,11.31
2023-02-22T10:52:31.455Z,11.34
2023-02-22T10:55:14.090Z,11.23
2023-02-22T10:57:45.890Z,11.27
2023-02-22T11:00:19.602Z,11.27
2023-02-22T11:02:56.123Z,11.38
2023-02-22T11:05:38.611Z,11.44
2023-02-22T11:08:27.974Z,11.41
2023-02-22T11:11:03.285Z,11.46
2023-02-22T11:13:39.208Z,11.47
2023-02-22T11:16:40.534Z,11.51
2023-02-22T11:19:16.161Z,11.56
2023-02-22T11:21:43.483Z,11.52
2023-02-22T11:24:13.180Z,11.45
2023-02-22T11:26:49.840Z,11.56
2023-02-22T11:29:25.889Z,11.58
2023-02-22T11:31:54.287Z,11.63
2023-02-22T11:34:42.648Z,11.65
2023-02-22T11:37:22.249Z,11.77
2023-02-22T11:40:04.309Z,11.82
2023-02-22T11:42:30.975Z,11.86
2023-02-22T11:45:21.139Z,11.83
2023-02-22T11:47:54.856Z,11.91
2023-02-22T11:50:46.419Z,11.93
2023-02-22T11:53:29.185Z,11.97
2023-02-22T11:56:35.648Z,12.06
2023-02-22T11:59:36.481Z,12.18
2023-02-22T12:02:30.917Z,12.23
2023-02-22T12:05:26.671Z,12.28
2023-02-22T12:08:19.702Z,12.46
2023-02-22T12:10:55.286Z,12.47
2023-02-22T12:13:36.764Z,12.58
2023-02-22T12:16:34.783Z,12.69
2023-02-22T12:19:26.821Z,12.71
2023-02-22T12:21:59.244Z,12.82
2023-02-22T12:24:34.239Z,12.84
2023-02-22T12:27:06.766Z,12.92
2023-02-22T12:29:47.044Z,13.05
2023-02-22T12:32:26.289Z,13.04
2023-02-22T12:35:11.268Z,13.18
2023-02-22T12:37:51.038Z,13.17
2023-02-22T12:40:30.628Z,13.06
2023-02-22T12:43:04.576Z,13.00
2023-02-22T12:45:44.643Z,12.97
2023-02-22T12:48:31.891Z,12.94
2023-02-22T12:51:17.289Z,13.07
2023-02-22T12:53:55.524Z,13.05
2023-02-22T12:56:41.325Z,12.89
2023-02-22T12:59:29.197Z,12.94
2023-02-22T13:02:10.073Z,12.96
2023-02-22T13:04:36.844Z,12.96
2023-02-22T13:07:28.255Z,13.01
2023-02-22T13:10:39.453Z,13.05
2023-02-22T13:13:31.447Z,13.10
2023-02-22T13:16:16.078Z,13.03
2023-02-22T13:18:53.997Z,13.01
2023-02-22T13:21:33.596Z,13.04
2023-02-22T13:24:12.454Z,13.09
2023-02-22T13:26:56.342Z,13.12
2023-02-22T13:29:38.427Z,13.15
2023-02-22T13:32:18.857Z,13.09
2023-02-22T13:34:56.698Z,13.04
2023-02-22T13:37:38.572Z,13.07
2023-02-22T13:40:43.690Z,13.01
2023-02-22T13:43:35.061Z,13.07
2023-02-22T13:46:17.955Z,13.05
2023-02-22T13:48:59.994Z,13.12
2023-02-22T13:51:41.688Z,13.06
2023-02-22T13:54:18.024Z,13.02
2023-02-22T13:56:47.961Z,13.06
2023-02-22T13:59:36.130Z,13.02
2023-02-22T14:02:06.824Z,12.98
2023-02-22T14:04:39.195Z,13.00
2023-02-22T14:07:26.218Z,13.09
